createdAt,value
2022-09-01T00:00:19.295Z,23.70
2022-09-01T00:05:38.061Z,23.70
2022-09-01T00:10:42.403Z,23.70
2022-09-01T00:15:46.191Z,23.60
2022-09-01T00:20:49.852Z,23.60
2022-09-01T00:25:54.708Z,23.60
2022-09-01T00:30:59.065Z,23.60
2022-09-01T00:36:05.781Z,23.60
2022-09-01T00:41:09.971Z,23.60
2022-09-01T00:46:18.632Z,23.60
2022-09-01T00:51:24.897Z,23.60
2022-09-01T00:56:30.856Z,23.60
2022-09-01T01:01:37.029Z,23.60
2022-09-01T01:07:04.622Z,23.60
2022-09-01T01:12:12.031Z,23.60
2022-09-01T01:17:15.655Z,23.50
2022-09-01T01:22:45.781Z,23.60
2022-09-01T01:27:49.818Z,23.50
2022-09-01T01:32:53.402Z,23.50
2022-09-01T01:37:58.661Z,23.50
2022-09-01T01:43:03.995Z,23.50
2022-09-01T01:48:09.017Z,23.50
2022-09-01T01:53:17.654Z,23.50
2022-09-01T01:58:24.959Z,23.50
2022-09-01T02:03:38.876Z,23.50
2022-09-01T02:08:44.178Z,23.50
2022-09-01T02:13:49.747Z,23.50
2022-09-01T02:18:54.390Z,23.50
2022-09-01T02:24:02.637Z,23.50
2022-09-01T02:29:18.326Z,23.50
2022-09-01T02:34:24.420Z,23.40
2022-09-01T02:39:33.034Z,23.40
2022-09-01T02:44:41.191Z,23.40
2022-09-01T02:49:47.547Z,23.40
2022-09-01T02:54:51.168Z,23.40
2022-09-01T02:59:58.890Z,23.40
2022-09-01T03:05:03.281Z,23.40
2022-09-01T03:10:09.955Z,23.40
2022-09-01T03:15:13.644Z,23.40
2022-09-01T03:20:20.033Z,23.40
2022-09-01T03:25:25.412Z,23.40
2022-09-01T03:30:30.720Z,23.30
2022-09-01T03:35:36.322Z,23.30
2022-09-01T03:40:53.009Z,23.30
2022-09-01T03:46:00.793Z,23.30
2022-09-01T03:51:04.693Z,23.30
2022-09-01T03:56:09.321Z,23.30
2022-09-01T04:01:14.529Z,23.30
2022-09-01T04:06:20.984Z,23.30
2022-09-01T04:11:25.743Z,23.30
2022-09-01T04:16:50.947Z,23.30
2022-09-01T04:21:58.285Z,23.30
2022-09-01T04:27:04.338Z,23.30
2022-09-01T04:32:13.373Z,23.30
2022-09-01T04:37:26.732Z,23.30
2022-09-01T04:42:36.709Z,23.20
2022-09-01T04:47:43.879Z,23.20
2022-09-01T04:52:56.145Z,23.20
2022-09-01T04:58:10.152Z,23.20
2022-09-01T05:03:17.633Z,23.20
2022-09-01T05:08:42.372Z,23.20
2022-09-01T05:13:58.043Z,23.20
2022-09-01T05:19:02.611Z,23.20
2022-09-01T05:24:11.086Z,23.20
2022-09-01T05:29:18.176Z,23.20
2022-09-01T05:34:28.244Z,23.20
2022-09-01T05:39:32.788Z,23.20
2022-09-01T05:44:39.685Z,23.20
2022-09-01T05:49:44.334Z,23.20
2022-09-01T05:54:49.907Z,23.20
2022-09-01T05:59:58.385Z,23.20
2022-09-01T06:05:04.386Z,23.20
2022-09-01T06:10:10.490Z,23.20
2022-09-01T06:15:21.348Z,23.30
2022-09-01T06:20:34.010Z,23.30
2022-09-01T06:25:40.703Z,23.30
2022-09-01T06:30:48.243Z,23.30
2022-09-01T06:35:59.000Z,23.30
2022-09-01T06:41:04.583Z,23.30
2022-09-01T06:46:16.877Z,23.30
2022-09-01T06:51:22.969Z,23.40
2022-09-01T06:56:38.915Z,23.40
2022-09-01T07:02:04.807Z,23.40
2022-09-01T07:13:05.532Z,23.50
2022-09-01T07:18:11.342Z,23.40
2022-09-01T07:23:17.422Z,23.40
2022-09-01T07:28:25.277Z,23.50
2022-09-01T07:33:49.116Z,23.60
2022-09-01T07:44:27.178Z,23.50
2022-09-01T07:50:12.357Z,23.60
2022-09-01T07:55:17.108Z,23.60
2022-09-01T08:00:22.455Z,23.60
2022-09-01T08:05:29.222Z,23.60
2022-09-01T08:10:36.907Z,23.70
2022-09-01T08:16:07.146Z,23.60
2022-09-01T08:21:12.733Z,23.70
2022-09-01T08:26:36.416Z,23.70
2022-09-01T08:31:42.397Z,23.80
2022-09-01T08:36:49.950Z,23.80
2022-09-01T08:41:53.864Z,23.80
2022-09-01T08:47:12.865Z,23.80
2022-09-01T08:52:33.448Z,23.90
2022-09-01T08:57:43.287Z,23.90
2022-09-01T09:03:27.483Z,23.90
2022-09-01T09:09:03.971Z,24.00
2022-09-01T09:14:17.073Z,24.10
2022-09-01T09:19:30.525Z,24.10
2022-09-01T09:25:00.571Z,24.10
2022-09-01T09:30:13.893Z,24.10
2022-09-01T09:35:36.655Z,24.10
2022-09-01T09:41:16.097Z,24.10
2022-09-01T09:46:35.472Z,24.20
2022-09-01T09:51:42.286Z,24.20
2022-09-01T09:56:47.715Z,24.30
2022-09-01T10:01:51.767Z,24.30
2022-09-01T10:06:56.104Z,24.40
2022-09-01T10:12:02.348Z,24.50
2022-09-01T10:17:16.173Z,24.40
2022-09-01T10:22:21.301Z,24.40
2022-09-01T10:27:29.450Z,24.40
2022-09-01T10:32:50.699Z,24.40
2022-09-01T10:37:59.436Z,24.50
2022-09-01T10:43:36.369Z,24.60
2022-09-01T10:48:48.863Z,24.60
2022-09-01T10:54:02.420Z,24.60
2022-09-01T11:04:40.508Z,24.70
2022-09-01T11:10:11.651Z,24.80
2022-09-01T11:15:17.004Z,24.80
2022-09-01T11:20:38.102Z,24.90
2022-09-01T11:25:41.758Z,24.90
2022-09-01T11:31:04.427Z,24.90
2022-09-01T11:36:48.263Z,25.00
2022-09-01T11:42:36.404Z,25.00
2022-09-01T11:47:47.365Z,25.10
2022-09-01T11:53:04.971Z,25.10
2022-09-01T11:58:34.953Z,25.10
2022-09-01T12:03:38.773Z,25.10
2022-09-01T12:08:51.817Z,25.10
2022-09-01T12:14:08.925Z,25.20
2022-09-01T12:19:26.975Z,25.20
2022-09-01T12:24:52.520Z,25.10
2022-09-01T12:29:57.166Z,25.10
2022-09-01T12:35:10.880Z,25.10
2022-09-01T12:40:32.899Z,25.20
2022-09-01T12:45:44.219Z,25.20
2022-09-01T12:51:01.496Z,25.20
2022-09-01T12:56:35.513Z,25.30
2022-09-01T13:01:40.652Z,25.30
2022-09-01T13:06:44.499Z,25.30
2022-09-01T13:17:15.285Z,25.40
2022-09-01T13:22:19.010Z,25.40
2022-09-01T13:27:23.721Z,25.30
2022-09-01T13:32:27.735Z,25.30
2022-09-01T13:37:31.410Z,25.30
2022-09-01T13:42:35.447Z,25.40
2022-09-01T13:53:10.115Z,25.40
2022-09-01T13:58:15.452Z,25.40
2022-09-01T14:03:23.413Z,25.30
2022-09-01T14:08:27.232Z,25.40
2022-09-01T14:13:31.977Z,25.30
2022-09-01T14:18:37.221Z,25.30
2022-09-01T14:23:42.473Z,25.30
2022-09-01T14:28:49.187Z,25.30
2022-09-01T14:33:59.548Z,25.30
2022-09-01T14:44:27.578Z,25.30
2022-09-01T14:49:37.545Z,25.20
2022-09-01T14:54:44.959Z,25.20
2022-09-01T14:59:51.452Z,25.20
2022-09-01T15:04:57.311Z,25.20
2022-09-01T15:10:01.064Z,25.10
2022-09-01T15:15:09.598Z,25.10
2022-09-01T15:20:32.321Z,25.10
2022-09-01T15:25:36.278Z,25.00
2022-09-01T15:30:41.310Z,25.10
2022-09-01T15:35:46.603Z,25.00
2022-09-01T15:40:57.849Z,25.00
2022-09-01T15:46:07.087Z,25.00
2022-09-01T15:51:28.081Z,25.00
2022-09-01T15:56:34.882Z,25.00
2022-09-01T16:01:44.171Z,24.90
2022-09-01T16:06:49.779Z,24.90
2022-09-01T16:11:54.631Z,24.90
2022-09-01T16:17:19.952Z,24.90
2022-09-01T16:22:35.343Z,24.90
2022-09-01T16:27:46.027Z,24.90
2022-09-01T16:32:50.061Z,24.80
2022-09-01T16:38:11.495Z,24.90
2022-09-01T16:43:25.037Z,24.80
2022-09-01T16:48:49.743Z,24.80
2022-09-01T16:54:13.832Z,24.80
2022-09-01T16:59:30.553Z,24.80
2022-09-01T17:04:41.339Z,24.80
2022-09-01T17:09:53.456Z,24.80
2022-09-01T17:15:02.607Z,24.70
2022-09-01T17:20:11.345Z,24.80
2022-09-01T17:25:29.293Z,24.70
2022-09-01T17:30:36.611Z,24.70
2022-09-01T17:35:56.394Z,24.70
2022-09-01T17:41:23.551Z,24.70
2022-09-01T17:46:40.739Z,24.70
2022-09-01T17:52:32.151Z,24.70
2022-09-01T17:57:45.268Z,24.60
2022-09-01T18:03:15.362Z,24.60
2022-09-01T18:08:30.468Z,24.60
2022-09-01T18:13:53.758Z,24.60
2022-09-01T18:19:08.701Z,24.60
2022-09-01T18:24:32.502Z,24.60
2022-09-01T18:29:39.889Z,24.50
2022-09-01T18:35:15.652Z,24.50
2022-09-01T18:40:33.320Z,24.50
2022-09-01T18:45:55.711Z,24.50
2022-09-01T18:51:13.695Z,24.50
2022-09-01T18:56:47.008Z,24.50
2022-09-01T19:02:00.911Z,24.50
2022-09-01T19:07:22.896Z,24.40
2022-09-01T19:12:52.527Z,24.40
2022-09-01T19:18:06.854Z,24.40
2022-09-01T19:23:36.237Z,24.40
2022-09-01T19:28:48.403Z,24.40
2022-09-01T19:33:59.791Z,24.30
2022-09-01T19:39:07.828Z,24.40
2022-09-01T19:44:37.344Z,24.30
2022-09-01T19:50:00.510Z,24.30
2022-09-01T19:55:15.391Z,24.30
2022-09-01T20:00:25.506Z,24.30
2022-09-01T20:05:49.246Z,24.30
2022-09-01T20:11:04.062Z,24.20
2022-09-01T20:16:24.948Z,24.20
2022-09-01T20:21:43.180Z,24.20
2022-09-01T20:26:57.153Z,24.20
2022-09-01T20:32:04.434Z,24.20
2022-09-01T20:37:21.393Z,24.20
2022-09-01T20:42:48.854Z,24.10
2022-09-01T20:47:58.202Z,24.10
2022-09-01T20:53:24.549Z,24.10
2022-09-01T20:58:34.071Z,24.10
2022-09-01T21:03:51.246Z,24.10
2022-09-01T21:08:58.340Z,24.10
2022-09-01T21:14:11.762Z,24.10
2022-09-01T21:19:18.490Z,24.00
2022-09-01T21:24:22.822Z,24.00
2022-09-01T21:29:51.926Z,24.00
2022-09-01T21:34:57.087Z,24.00
2022-09-01T21:40:04.141Z,24.00
2022-09-01T21:45:11.392Z,24.00
2022-09-01T21:50:17.553Z,23.90
2022-09-01T21:55:24.493Z,24.00
2022-09-01T22:00:30.860Z,23.90
2022-09-01T22:05:36.128Z,23.90
2022-09-01T22:10:46.440Z,23.90
2022-09-01T22:15:52.848Z,23.90
2022-09-01T22:21:07.671Z,23.90
2022-09-01T22:26:20.117Z,23.90
2022-09-01T22:31:25.488Z,23.90
2022-09-01T22:36:36.334Z,23.90
2022-09-01T22:41:40.776Z,23.90
2022-09-01T22:46:45.113Z,23.80
2022-09-01T22:51:49.147Z,23.90
2022-09-01T22:56:53.281Z,23.90
2022-09-01T23:02:02.173Z,23.80
2022-09-01T23:07:07.411Z,23.80
2022-09-01T23:12:11.109Z,23.80
2022-09-01T23:17:17.197Z,23.80
2022-09-01T23:22:20.915Z,23.80
2022-09-01T23:27:24.437Z,23.80
2022-09-01T23:32:28.263Z,23.80
2022-09-01T23:37:32.194Z,23.80
2022-09-01T23:42:35.918Z,23.80
2022-09-01T23:47:40.666Z,23.80
2022-09-01T23:52:44.190Z,23.70
2022-09-01T23:57:47.913Z,23.70
